sensor_id;sensor_type;location;lat;lon;timestamp;P1;durP1;ratioP1;P2;durP2;ratioP2
11414;SDS011;5763;42.714;23.244;2023-12-20T00:01:01;7.40;;;4.18;;
11414;SDS011;5763;42.714;23.244;2023-12-20T00:03:28;5.97;;;4.53;;
11414;SDS011;5763;42.714;23.244;2023-12-20T00:05:55;5.88;;;3.95;;
11414;SDS011;5763;42.714;23.244;2023-12-20T00:08:23;5.28;;;3.65;;
11414;SDS011;5763;42.714;23.244;2023-12-20T00:10:52;5.38;;;3.20;;
11414;SDS011;5763;42.714;23.244;2023-12-20T00:13:19;5.10;;;2.80;;
11414;SDS011;5763;42.714;23.244;2023-12-20T00:15:46;7.18;;;3.47;;
11414;SDS011;5763;42.714;23.244;2023-12-20T00:18:13;6.53;;;3.30;;
11414;SDS011;5763;42.714;23.244;2023-12-20T00:20:40;5.30;;;3.28;;
11414;SDS011;5763;42.714;23.244;2023-12-20T00:23:07;5.70;;;3.97;;
11414;SDS011;5763;42.714;23.244;2023-12-20T00:25:34;7.85;;;3.30;;
11414;SDS011;5763;42.714;23.244;2023-12-20T00:28:03;4.15;;;3.75;;
11414;SDS011;5763;42.714;23.244;2023-12-20T00:30:30;11.13;;;4.95;;
11414;SDS011;5763;42.714;23.244;2023-12-20T00:32:57;6.90;;;3.65;;
11414;SDS011;5763;42.714;23.244;2023-12-20T00:35:25;4.65;;;3.63;;
11414;SDS011;5763;42.714;23.244;2023-12-20T00:37:52;5.43;;;3.83;;
11414;SDS011;5763;42.714;23.244;2023-12-20T00:40:19;3.63;;;3.30;;
11414;SDS011;5763;42.714;23.244;2023-12-20T00:42:47;5.13;;;3.92;;
11414;SDS011;5763;42.714;23.244;2023-12-20T00:45:16;8.63;;;3.63;;
11414;SDS011;5763;42.714;23.244;2023-12-20T00:47:43;6.78;;;4.13;;
11414;SDS011;5763;42.714;23.244;2023-12-20T00:50:10;5.57;;;4.28;;
11414;SDS011;5763;42.714;23.244;2023-12-20T00:52:37;7.20;;;4.43;;
11414;SDS011;5763;42.714;23.244;2023-12-20T00:55:04;6.05;;;4.82;;
11414;SDS011;5763;42.714;23.244;2023-12-20T00:57:32;7.78;;;4.88;;
11414;SDS011;5763;42.714;23.244;2023-12-20T01:00:00;5.97;;;3.63;;
11414;SDS011;5763;42.714;23.244;2023-12-20T01:02:29;5.47;;;4.28;;
11414;SDS011;5763;42.714;23.244;2023-12-20T01:04:56;3.55;;;2.72;;
11414;SDS011;5763;42.714;23.244;2023-12-20T01:07:23;6.72;;;4.20;;
11414;SDS011;5763;42.714;23.244;2023-12-20T01:09:50;6.68;;;3.85;;
11414;SDS011;5763;42.714;23.244;2023-12-20T01:12:17;11.18;;;5.63;;
11414;SDS011;5763;42.714;23.244;2023-12-20T01:14:45;5.30;;;3.33;;
11414;SDS011;5763;42.714;23.244;2023-12-20T01:17:12;6.43;;;3.38;;
11414;SDS011;5763;42.714;23.244;2023-12-20T01:19:41;5.38;;;3.53;;
11414;SDS011;5763;42.714;23.244;2023-12-20T01:22:08;5.60;;;4.07;;
11414;SDS011;5763;42.714;23.244;2023-12-20T01:24:35;8.32;;;4.50;;
11414;SDS011;5763;42.714;23.244;2023-12-20T01:27:02;3.67;;;3.30;;
11414;SDS011;5763;42.714;23.244;2023-12-20T01:29:30;6.45;;;3.50;;
11414;SDS011;5763;42.714;23.244;2023-12-20T01:32:00;4.75;;;4.25;;
11414;SDS011;5763;42.714;23.244;2023-12-20T01:34:27;6.38;;;2.92;;
11414;SDS011;5763;42.714;23.244;2023-12-20T01:36:56;4.57;;;3.65;;
11414;SDS011;5763;42.714;23.244;2023-12-20T01:39:23;5.13;;;2.80;;
11414;SDS011;5763;42.714;23.244;2023-12-20T01:41:50;5.65;;;3.13;;
11414;SDS011;5763;42.714;23.244;2023-12-20T01:44:17;3.80;;;2.55;;
11414;SDS011;5763;42.714;23.244;2023-12-20T01:46:45;4.90;;;3.03;;
11414;SDS011;5763;42.714;23.244;2023-12-20T01:49:12;4.18;;;3.65;;
11414;SDS011;5763;42.714;23.244;2023-12-20T01:51:40;2.75;;;2.42;;
11414;SDS011;5763;42.714;23.244;2023-12-20T01:54:10;4.18;;;3.78;;
11414;SDS011;5763;42.714;23.244;2023-12-20T01:56:37;9.57;;;3.42;;
11414;SDS011;5763;42.714;23.244;2023-12-20T01:59:06;3.63;;;3.30;;
11414;SDS011;5763;42.714;23.244;2023-12-20T02:01:34;6.82;;;4.45;;
11414;SDS011;5763;42.714;23.244;2023-12-20T02:04:02;6.18;;;3.70;;
11414;SDS011;5763;42.714;23.244;2023-12-20T02:06:29;5.68;;;3.60;;
11414;SDS011;5763;42.714;23.244;2023-12-20T02:08:57;6.60;;;4.25;;
11414;SDS011;5763;42.714;23.244;2023-12-20T02:11:26;3.83;;;3.53;;
11414;SDS011;5763;42.714;23.244;2023-12-20T02:13:56;3.20;;;2.67;;
11414;SDS011;5763;42.714;23.244;2023-12-20T02:16:23;5.63;;;2.92;;
11414;SDS011;5763;42.714;23.244;2023-12-20T02:18:50;3.20;;;2.97;;
11414;SDS011;5763;42.714;23.244;2023-12-20T02:21:18;6.25;;;4.40;;
11414;SDS011;5763;42.714;23.244;2023-12-20T02:23:48;5.43;;;2.97;;
11414;SDS011;5763;42.714;23.244;2023-12-20T02:26:15;4.72;;;3.05;;
11414;SDS011;5763;42.714;23.244;2023-12-20T02:28:43;4.97;;;3.35;;
11414;SDS011;5763;42.714;23.244;2023-12-20T02:31:13;10.38;;;3.55;;
11414;SDS011;5763;42.714;23.244;2023-12-20T02:33:40;6.53;;;4.70;;
11414;SDS011;5763;42.714;23.244;2023-12-20T02:36:09;8.63;;;4.53;;
11414;SDS011;5763;42.714;23.244;2023-12-20T02:38:36;4.47;;;3.33;;
11414;SDS011;5763;42.714;23.244;2023-12-20T02:41:04;7.75;;;4.80;;
11414;SDS011;5763;42.714;23.244;2023-12-20T02:43:31;4.03;;;3.00;;
11414;SDS011;5763;42.714;23.244;2023-12-20T02:45:59;5.53;;;4.57;;
11414;SDS011;5763;42.714;23.244;2023-12-20T02:48:26;4.68;;;3.72;;
11414;SDS011;5763;42.714;23.244;2023-12-20T02:50:53;5.15;;;4.45;;
11414;SDS011;5763;42.714;23.244;2023-12-20T02:53:21;4.22;;;2.92;;
11414;SDS011;5763;42.714;23.244;2023-12-20T02:55:48;5.95;;;3.47;;
11414;SDS011;5763;42.714;23.244;2023-12-20T02:58:16;7.40;;;3.97;;
11414;SDS011;5763;42.714;23.244;2023-12-20T03:00:44;3.60;;;3.08;;
11414;SDS011;5763;42.714;23.244;2023-12-20T03:03:11;9.05;;;5.22;;
11414;SDS011;5763;42.714;23.244;2023-12-20T03:05:37;9.60;;;4.55;;
11414;SDS011;5763;42.714;23.244;2023-12-20T03:08:04;3.95;;;3.25;;
11414;SDS011;5763;42.714;23.244;2023-12-20T03:10:31;5.72;;;4.22;;
11414;SDS011;5763;42.714;23.244;2023-12-20T03:12:58;5.57;;;3.72;;
11414;SDS011;5763;42.714;23.244;2023-12-20T03:15:27;9.10;;;3.53;;
11414;SDS011;5763;42.714;23.244;2023-12-20T03:17:54;5.40;;;4.20;;
11414;SDS011;5763;42.714;23.244;2023-12-20T03:20:24;5.30;;;3.80;;
11414;SDS011;5763;42.714;23.244;2023-12-20T03:22:51;2.80;;;2.47;;
11414;SDS011;5763;42.714;23.244;2023-12-20T03:25:18;4.13;;;2.78;;
11414;SDS011;5763;42.714;23.244;2023-12-20T03:27:45;4.55;;;2.97;;
11414;SDS011;5763;42.714;23.244;2023-12-20T03:30:13;4.28;;;3.72;;
11414;SDS011;5763;42.714;23.244;2023-12-20T03:32:42;4.47;;;3.10;;
11414;SDS011;5763;42.714;23.244;2023-12-20T03:35:09;4.22;;;3.55;;
11414;SDS011;5763;42.714;23.244;2023-12-20T03:37:35;4.57;;;3.25;;
11414;SDS011;5763;42.714;23.244;2023-12-20T03:40:02;4.72;;;3.70;;
11414;SDS011;5763;42.714;23.244;2023-12-20T03:42:30;4.70;;;4.18;;
11414;SDS011;5763;42.714;23.244;2023-12-20T03:44:57;5.03;;;3.40;;
11414;SDS011;5763;42.714;23.244;2023-12-20T03:47:24;4.80;;;3.58;;
11414;SDS011;5763;42.714;23.244;2023-12-20T03:49:53;5.43;;;3.83;;
11414;SDS011;5763;42.714;23.244;2023-12-20T03:52:20;4.90;;;3.58;;
11414;SDS011;5763;42.714;23.244;2023-12-20T03:54:47;5.93;;;2.70;;
11414;SDS011;5763;42.714;23.244;2023-12-20T03:57:15;4.88;;;2.75;;
11414;SDS011;5763;42.714;23.244;2023-12-20T03:59:42;3.10;;;2.50;;
11414;SDS011;5763;42.714;23.244;2023-12-20T04:02:09;3.13;;;1.98;;
11414;SDS011;5763;42.714;23.244;2023-12-20T04:04:36;8.88;;;3.17;;
11414;SDS011;5763;42.714;23.244;2023-12-20T04:07:04;4.43;;;2.42;;
11414;SDS011;5763;42.714;23.244;2023-12-20T04:09:31;2.58;;;2.00;;
11414;SDS011;5763;42.714;23.244;2023-12-20T04:11:58;2.35;;;2.15;;
11414;SDS011;5763;42.714;23.244;2023-12-20T04:14:26;4.60;;;2.83;;
11414;SDS011;5763;42.714;23.244;2023-12-20T04:16:53;3.92;;;2.45;;
11414;SDS011;5763;42.714;23.244;2023-12-20T04:19:20;5.03;;;2.75;;
11414;SDS011;5763;42.714;23.244;2023-12-20T04:21:47;2.88;;;2.67;;
11414;SDS011;5763;42.714;23.244;2023-12-20T04:24:16;4.60;;;2.47;;
11414;SDS011;5763;42.714;23.244;2023-12-20T04:26:43;5.05;;;3.72;;
11414;SDS011;5763;42.714;23.244;2023-12-20T04:29:10;4.03;;;3.70;;
11414;SDS011;5763;42.714;23.244;2023-12-20T04:31:37;4.53;;;2.42;;
11414;SDS011;5763;42.714;23.244;2023-12-20T04:34:04;4.50;;;2.50;;
11414;SDS011;5763;42.714;23.244;2023-12-20T04:36:31;6.10;;;3.92;;
11414;SDS011;5763;42.714;23.244;2023-12-20T04:38:59;4.10;;;1.90;;
11414;SDS011;5763;42.714;23.244;2023-12-20T04:41:30;3.15;;;2.63;;
11414;SDS011;5763;42.714;23.244;2023-12-20T04:43:57;3.53;;;2.53;;
11414;SDS011;5763;42.714;23.244;2023-12-20T04:46:25;4.57;;;3.03;;
11414;SDS011;5763;42.714;23.244;2023-12-20T04:48:53;5.32;;;3.92;;
11414;SDS011;5763;42.714;23.244;2023-12-20T04:51:20;3.33;;;3.10;;
11414;SDS011;5763;42.714;23.244;2023-12-20T04:53:47;4.97;;;2.75;;
11414;SDS011;5763;42.714;23.244;2023-12-20T04:56:15;9.35;;;3.00;;
11414;SDS011;5763;42.714;23.244;2023-12-20T04:58:43;6.10;;;2.90;;
11414;SDS011;5763;42.714;23.244;2023-12-20T05:01:10;3.88;;;2.42;;
11414;SDS011;5763;42.714;23.244;2023-12-20T05:03:38;5.05;;;3.45;;
11414;SDS011;5763;42.714;23.244;2023-12-20T05:06:05;6.78;;;4.15;;
11414;SDS011;5763;42.714;23.244;2023-12-20T05:08:32;5.47;;;2.90;;
11414;SDS011;5763;42.714;23.244;2023-12-20T05:10:59;8.32;;;4.43;;
11414;SDS011;5763;42.714;23.244;2023-12-20T05:13:27;6.38;;;3.30;;
11414;SDS011;5763;42.714;23.244;2023-12-20T05:15:55;4.18;;;3.72;;
11414;SDS011;5763;42.714;23.244;2023-12-20T05:18:22;5.88;;;4.25;;
11414;SDS011;5763;42.714;23.244;2023-12-20T05:20:49;6.72;;;3.85;;
11414;SDS011;5763;42.714;23.244;2023-12-20T05:23:17;5.30;;;3.85;;
11414;SDS011;5763;42.714;23.244;2023-12-20T05:25:45;5.05;;;3.72;;
11414;SDS011;5763;42.714;23.244;2023-12-20T05:28:12;6.00;;;4.22;;
11414;SDS011;5763;42.714;23.244;2023-12-20T05:30:40;10.85;;;4.47;;
11414;SDS011;5763;42.714;23.244;2023-12-20T05:33:08;12.05;;;4.22;;
11414;SDS011;5763;42.714;23.244;2023-12-20T05:35:35;8.52;;;4.22;;
11414;SDS011;5763;42.714;23.244;2023-12-20T05:38:03;5.15;;;4.13;;
11414;SDS011;5763;42.714;23.244;2023-12-20T05:40:30;6.25;;;4.25;;
11414;SDS011;5763;42.714;23.244;2023-12-20T05:42:57;4.97;;;4.22;;
11414;SDS011;5763;42.714;23.244;2023-12-20T05:45:24;6.65;;;4.97;;
11414;SDS011;5763;42.714;23.244;2023-12-20T05:47:51;8.63;;;5.18;;
11414;SDS011;5763;42.714;23.244;2023-12-20T05:50:20;8.48;;;4.93;;
11414;SDS011;5763;42.714;23.244;2023-12-20T05:52:47;6.38;;;4.13;;
11414;SDS011;5763;42.714;23.244;2023-12-20T05:55:15;5.88;;;4.32;;
11414;SDS011;5763;42.714;23.244;2023-12-20T05:57:43;5.82;;;2.78;;
11414;SDS011;5763;42.714;23.244;2023-12-20T06:00:10;5.05;;;3.25;;
11414;SDS011;5763;42.714;23.244;2023-12-20T06:02:39;4.57;;;4.00;;
11414;SDS011;5763;42.714;23.244;2023-12-20T06:05:06;4.63;;;3.50;;
11414;SDS011;5763;42.714;23.244;2023-12-20T06:07:35;3.75;;;2.78;;
11414;SDS011;5763;42.714;23.244;2023-12-20T06:10:02;5.50;;;3.75;;
11414;SDS011;5763;42.714;23.244;2023-12-20T06:12:31;4.93;;;4.05;;
11414;SDS011;5763;42.714;23.244;2023-12-20T06:15:01;6.00;;;3.28;;
11414;SDS011;5763;42.714;23.244;2023-12-20T06:17:28;3.42;;;2.63;;
11414;SDS011;5763;42.714;23.244;2023-12-20T06:19:56;4.60;;;2.97;;
11414;SDS011;5763;42.714;23.244;2023-12-20T06:22:23;9.30;;;4.13;;
11414;SDS011;5763;42.714;23.244;2023-12-20T06:24:52;6.35;;;4.05;;
11414;SDS011;5763;42.714;23.244;2023-12-20T06:27:19;5.25;;;4.80;;
11414;SDS011;5763;42.714;23.244;2023-12-20T06:29:46;5.93;;;3.30;;
11414;SDS011;5763;42.714;23.244;2023-12-20T06:32:14;3.40;;;2.85;;
11414;SDS011;5763;42.714;23.244;2023-12-20T06:34:41;6.10;;;2.72;;
11414;SDS011;5763;42.714;23.244;2023-12-20T06:37:08;9.27;;;5.32;;
11414;SDS011;5763;42.714;23.244;2023-12-20T06:39:34;4.72;;;3.42;;
11414;SDS011;5763;42.714;23.244;2023-12-20T06:42:03;7.45;;;3.90;;
11414;SDS011;5763;42.714;23.244;2023-12-20T06:44:31;5.32;;;3.40;;
11414;SDS011;5763;42.714;23.244;2023-12-20T06:46:58;5.28;;;3.47;;
11414;SDS011;5763;42.714;23.244;2023-12-20T06:49:25;3.65;;;2.33;;
11414;SDS011;5763;42.714;23.244;2023-12-20T06:51:52;5.68;;;3.45;;
11414;SDS011;5763;42.714;23.244;2023-12-20T06:54:20;8.02;;;4.18;;
11414;SDS011;5763;42.714;23.244;2023-12-20T06:56:47;6.38;;;3.50;;
11414;SDS011;5763;42.714;23.244;2023-12-20T06:59:15;6.43;;;4.70;;
11414;SDS011;5763;42.714;23.244;2023-12-20T07:01:45;9.43;;;3.78;;
11414;SDS011;5763;42.714;23.244;2023-12-20T07:04:15;6.78;;;3.92;;
11414;SDS011;5763;42.714;23.244;2023-12-20T07:06:45;7.35;;;5.60;;
11414;SDS011;5763;42.714;23.244;2023-12-20T07:09:12;11.40;;;5.07;;
11414;SDS011;5763;42.714;23.244;2023-12-20T07:11:40;6.45;;;4.95;;
11414;SDS011;5763;42.714;23.244;2023-12-20T07:14:07;6.93;;;5.72;;
11414;SDS011;5763;42.714;23.244;2023-12-20T07:16:37;7.53;;;4.32;;
11414;SDS011;5763;42.714;23.244;2023-12-20T07:19:04;6.07;;;5.20;;
11414;SDS011;5763;42.714;23.244;2023-12-20T07:21:31;8.05;;;5.50;;
11414;SDS011;5763;42.714;23.244;2023-12-20T07:23:58;6.72;;;5.15;;
11414;SDS011;5763;42.714;23.244;2023-12-20T07:26:25;8.52;;;6.35;;
11414;SDS011;5763;42.714;23.244;2023-12-20T07:28:52;9.15;;;5.18;;
11414;SDS011;5763;42.714;23.244;2023-12-20T07:31:20;13.85;;;6.25;;
11414;SDS011;5763;42.714;23.244;2023-12-20T07:33:50;12.27;;;4.57;;
11414;SDS011;5763;42.714;23.244;2023-12-20T07:36:18;13.45;;;5.88;;
11414;SDS011;5763;42.714;23.244;2023-12-20T07:38:46;7.03;;;4.97;;
11414;SDS011;5763;42.714;23.244;2023-12-20T07:41:13;8.40;;;5.07;;
11414;SDS011;5763;42.714;23.244;2023-12-20T07:43:41;8.60;;;5.15;;
11414;SDS011;5763;42.714;23.244;2023-12-20T07:46:08;7.10;;;4.72;;
11414;SDS011;5763;42.714;23.244;2023-12-20T07:48:35;7.63;;;5.38;;
11414;SDS011;5763;42.714;23.244;2023-12-20T07:51:04;11.27;;;5.10;;
11414;SDS011;5763;42.714;23.244;2023-12-20T07:53:33;5.72;;;4.82;;
11414;SDS011;5763;42.714;23.244;2023-12-20T07:56:00;4.50;;;3.58;;
11414;SDS011;5763;42.714;23.244;2023-12-20T07:58:28;16.42;;;6.20;;
11414;SDS011;5763;42.714;23.244;2023-12-20T08:00:56;12.70;;;5.15;;
11414;SDS011;5763;42.714;23.244;2023-12-20T08:03:23;8.75;;;5.68;;
11414;SDS011;5763;42.714;23.244;2023-12-20T08:05:50;9.52;;;5.57;;
11414;SDS011;5763;42.714;23.244;2023-12-20T08:08:19;14.23;;;5.95;;
11414;SDS011;5763;42.714;23.244;2023-12-20T08:10:47;7.15;;;4.40;;
11414;SDS011;5763;42.714;23.244;2023-12-20T08:13:14;9.98;;;4.53;;
11414;SDS011;5763;42.714;23.244;2023-12-20T08:15:41;6.63;;;4.82;;
11414;SDS011;5763;42.714;23.244;2023-12-20T08:18:09;6.85;;;4.82;;
11414;SDS011;5763;42.714;23.244;2023-12-20T08:20:36;9.18;;;5.45;;
11414;SDS011;5763;42.714;23.244;2023-12-20T08:23:03;10.70;;;5.82;;
11414;SDS011;5763;42.714;23.244;2023-12-20T08:25:32;8.23;;;5.80;;
11414;SDS011;5763;42.714;23.244;2023-12-20T08:27:59;10.07;;;4.90;;
11414;SDS011;5763;42.714;23.244;2023-12-20T08:30:28;9.88;;;5.28;;
11414;SDS011;5763;42.714;23.244;2023-12-20T08:32:56;10.27;;;5.82;;
11414;SDS011;5763;42.714;23.244;2023-12-20T08:35:25;10.55;;;6.35;;
11414;SDS011;5763;42.714;23.244;2023-12-20T08:37:53;8.63;;;5.05;;
11414;SDS011;5763;42.714;23.244;2023-12-20T08:40:20;11.98;;;5.22;;
11414;SDS011;5763;42.714;23.244;2023-12-20T08:42:50;9.70;;;5.05;;
11414;SDS011;5763;42.714;23.244;2023-12-20T08:45:20;13.82;;;6.43;;
11414;SDS011;5763;42.714;23.244;2023-12-20T08:47:47;11.00;;;6.47;;
11414;SDS011;5763;42.714;23.244;2023-12-20T08:50:14;9.00;;;5.88;;
11414;SDS011;5763;42.714;23.244;2023-12-20T08:52:42;9.38;;;5.95;;
11414;SDS011;5763;42.714;23.244;2023-12-20T08:55:09;13.27;;;8.13;;
11414;SDS011;5763;42.714;23.244;2023-12-20T08:57:37;18.42;;;8.10;;
11414;SDS011;5763;42.714;23.244;2023-12-20T09:00:06;14.05;;;7.28;;
11414;SDS011;5763;42.714;23.244;2023-12-20T09:02:34;10.95;;;6.70;;
11414;SDS011;5763;42.714;23.244;2023-12-20T09:05:02;12.48;;;7.07;;
11414;SDS011;5763;42.714;23.244;2023-12-20T09:07:30;10.80;;;6.53;;
11414;SDS011;5763;42.714;23.244;2023-12-20T09:09:58;12.32;;;7.03;;
11414;SDS011;5763;42.714;23.244;2023-12-20T09:12:25;8.65;;;6.38;;
11414;SDS011;5763;42.714;23.244;2023-12-20T09:14:53;7.88;;;5.03;;
11414;SDS011;5763;42.714;23.244;2023-12-20T09:17:21;12.05;;;5.93;;
11414;SDS011;5763;42.714;23.244;2023-12-20T09:19:49;7.28;;;5.57;;
11414;SDS011;5763;42.714;23.244;2023-12-20T09:22:17;7.95;;;6.05;;
11414;SDS011;5763;42.714;23.244;2023-12-20T09:24:46;11.50;;;7.88;;
11414;SDS011;5763;42.714;23.244;2023-12-20T09:27:14;7.07;;;6.30;;
11414;SDS011;5763;42.714;23.244;2023-12-20T09:29:41;9.25;;;5.70;;
11414;SDS011;5763;42.714;23.244;2023-12-20T09:32:08;16.48;;;7.50;;
11414;SDS011;5763;42.714;23.244;2023-12-20T09:34:37;18.90;;;6.32;;
11414;SDS011;5763;42.714;23.244;2023-12-20T09:37:04;15.52;;;7.72;;
11414;SDS011;5763;42.714;23.244;2023-12-20T09:39:33;12.05;;;7.55;;
11414;SDS011;5763;42.714;23.244;2023-12-20T09:42:01;11.63;;;6.45;;
11414;SDS011;5763;42.714;23.244;2023-12-20T09:44:29;11.02;;;6.85;;
11414;SDS011;5763;42.714;23.244;2023-12-20T09:46:58;13.80;;;7.82;;
11414;SDS011;5763;42.714;23.244;2023-12-20T09:49:28;12.77;;;8.50;;
11414;SDS011;5763;42.714;23.244;2023-12-20T09:51:58;16.80;;;9.88;;
11414;SDS011;5763;42.714;23.244;2023-12-20T09:54:28;14.32;;;7.97;;
11414;SDS011;5763;42.714;23.244;2023-12-20T09:56:55;15.80;;;9.77;;
11414;SDS011;5763;42.714;23.244;2023-12-20T09:59:22;23.98;;;9.63;;
11414;SDS011;5763;42.714;23.244;2023-12-20T10:01:50;19.27;;;10.55;;
11414;SDS011;5763;42.714;23.244;2023-12-20T10:04:21;14.35;;;9.70;;
11414;SDS011;5763;42.714;23.244;2023-12-20T10:06:48;15.75;;;9.18;;
11414;SDS011;5763;42.714;23.244;2023-12-20T10:09:17;15.10;;;8.05;;
11414;SDS011;5763;42.714;23.244;2023-12-20T10:11:44;23.60;;;10.60;;
11414;SDS011;5763;42.714;23.244;2023-12-20T10:14:12;17.40;;;9.70;;
11414;SDS011;5763;42.714;23.244;2023-12-20T10:16:40;16.77;;;9.43;;
11414;SDS011;5763;42.714;23.244;2023-12-20T10:19:07;20.55;;;10.23;;
11414;SDS011;5763;42.714;23.244;2023-12-20T10:21:34;15.43;;;10.02;;
11414;SDS011;5763;42.714;23.244;2023-12-20T10:24:02;23.45;;;12.27;;
11414;SDS011;5763;42.714;23.244;2023-12-20T10:26:33;16.65;;;10.60;;
11414;SDS011;5763;42.714;23.244;2023-12-20T10:29:01;15.00;;;10.20;;
11414;SDS011;5763;42.714;23.244;2023-12-20T10:31:30;23.75;;;13.57;;
11414;SDS011;5763;42.714;23.244;2023-12-20T10:34:02;24.67;;;12.00;;
11414;SDS011;5763;42.714;23.244;2023-12-20T10:36:30;24.52;;;14.50;;
11414;SDS011;5763;42.714;23.244;2023-12-20T10:38:59;28.77;;;15.38;;
11414;SDS011;5763;42.714;23.244;2023-12-20T10:41:28;21.52;;;15.55;;
11414;SDS011;5763;42.714;23.244;2023-12-20T10:44:00;25.30;;;15.32;;
11414;SDS011;5763;42.714;23.244;2023-12-20T10:46:28;29.92;;;15.18;;
11414;SDS011;5763;42.714;23.244;2023-12-20T10:48:57;27.80;;;13.77;;
11414;SDS011;5763;42.714;23.244;2023-12-20T10:51:25;32.45;;;16.48;;
11414;SDS011;5763;42.714;23.244;2023-12-20T10:53:54;30.63;;;16.92;;
11414;SDS011;5763;42.714;23.244;2023-12-20T10:56:22;28.90;;;15.10;;
11414;SDS011;5763;42.714;23.244;2023-12-20T10:58:52;32.42;;;16.83;;
11414;SDS011;5763;42.714;23.244;2023-12-20T11:01:21;31.15;;;15.10;;
11414;SDS011;5763;42.714;23.244;2023-12-20T11:03:50;30.80;;;16.98;;
11414;SDS011;5763;42.714;23.244;2023-12-20T11:06:22;32.88;;;17.23;;
11414;SDS011;5763;42.714;23.244;2023-12-20T11:09:00;24.98;;;14.65;;
11414;SDS011;5763;42.714;23.244;2023-12-20T11:11:35;28.92;;;15.43;;
11414;SDS011;5763;42.714;23.244;2023-12-20T11:14:11;24.40;;;16.40;;
11414;SDS011;5763;42.714;23.244;2023-12-20T11:16:44;29.10;;;15.35;;
11414;SDS011;5763;42.714;23.244;2023-12-20T11:19:12;23.85;;;15.10;;
11414;SDS011;5763;42.714;23.244;2023-12-20T11:21:40;26.85;;;16.15;;
11414;SDS011;5763;42.714;23.244;2023-12-20T11:24:07;31.30;;;17.60;;
11414;SDS011;5763;42.714;23.244;2023-12-20T11:26:36;27.25;;;16.52;;
11414;SDS011;5763;42.714;23.244;2023-12-20T11:32:02;30.35;;;17.70;;
11414;SDS011;5763;42.714;23.244;2023-12-20T11:34:31;34.50;;;18.80;;
11414;SDS011;5763;42.714;23.244;2023-12-20T11:36:59;38.60;;;20.80;;
11414;SDS011;5763;42.714;23.244;2023-12-20T11:39:27;36.75;;;22.40;;
11414;SDS011;5763;42.714;23.244;2023-12-20T11:41:55;37.55;;;20.95;;
11414;SDS011;5763;42.714;23.244;2023-12-20T11:44:25;42.67;;;22.85;;
11414;SDS011;5763;42.714;23.244;2023-12-20T11:46:54;40.83;;;24.20;;
11414;SDS011;5763;42.714;23.244;2023-12-20T11:49:24;38.15;;;25.50;;
11414;SDS011;5763;42.714;23.244;2023-12-20T11:51:54;41.97;;;24.45;;
11414;SDS011;5763;42.714;23.244;2023-12-20T11:54:21;38.92;;;24.63;;
11414;SDS011;5763;42.714;23.244;2023-12-20T11:56:48;42.25;;;25.10;;
11414;SDS011;5763;42.714;23.244;2023-12-20T11:59:16;42.03;;;25.27;;
11414;SDS011;5763;42.714;23.244;2023-12-20T12:01:47;48.42;;;28.48;;
11414;SDS011;5763;42.714;23.244;2023-12-20T12:04:17;46.38;;;27.35;;
11414;SDS011;5763;42.714;23.244;2023-12-20T12:06:44;44.53;;;26.05;;
11414;SDS011;5763;42.714;23.244;2023-12-20T12:09:12;46.75;;;23.58;;
11414;SDS011;5763;42.714;23.244;2023-12-20T12:11:40;42.45;;;23.75;;
11414;SDS011;5763;42.714;23.244;2023-12-20T12:14:08;33.50;;;22.20;;
11414;SDS011;5763;42.714;23.244;2023-12-20T12:16:36;40.42;;;21.60;;
11414;SDS011;5763;42.714;23.244;2023-12-20T12:19:03;40.47;;;22.25;;
11414;SDS011;5763;42.714;23.244;2023-12-20T12:21:32;38.80;;;21.08;;
11414;SDS011;5763;42.714;23.244;2023-12-20T12:24:06;37.25;;;20.63;;
11414;SDS011;5763;42.714;23.244;2023-12-20T12:26:34;36.60;;;21.85;;
11414;SDS011;5763;42.714;23.244;2023-12-20T12:29:01;34.05;;;21.83;;
11414;SDS011;5763;42.714;23.244;2023-12-20T12:31:29;43.03;;;24.95;;
11414;SDS011;5763;42.714;23.244;2023-12-20T12:33:57;42.58;;;24.05;;
11414;SDS011;5763;42.714;23.244;2023-12-20T12:36:24;44.13;;;26.40;;
11414;SDS011;5763;42.714;23.244;2023-12-20T12:38:53;50.88;;;28.60;;
11414;SDS011;5763;42.714;23.244;2023-12-20T12:41:23;40.97;;;26.95;;
11414;SDS011;5763;42.714;23.244;2023-12-20T12:43:50;53.38;;;30.02;;
11414;SDS011;5763;42.714;23.244;2023-12-20T12:46:17;52.15;;;30.15;;
11414;SDS011;5763;42.714;23.244;2023-12-20T12:48:45;48.53;;;28.55;;
11414;SDS011;5763;42.714;23.244;2023-12-20T12:51:12;53.20;;;29.25;;
11414;SDS011;5763;42.714;23.244;2023-12-20T12:53:40;55.08;;;30.20;;
11414;SDS011;5763;42.714;23.244;2023-12-20T12:56:09;48.03;;;29.05;;
11414;SDS011;5763;42.714;23.244;2023-12-20T12:58:39;51.83;;;30.10;;
11414;SDS011;5763;42.714;23.244;2023-12-20T13:01:06;47.90;;;28.98;;
11414;SDS011;5763;42.714;23.244;2023-12-20T13:03:34;54.58;;;30.85;;
11414;SDS011;5763;42.714;23.244;2023-12-20T13:06:01;59.45;;;31.23;;
11414;SDS011;5763;42.714;23.244;2023-12-20T13:08:31;51.72;;;30.60;;
11414;SDS011;5763;42.714;23.244;2023-12-20T13:10:59;46.17;;;29.02;;
11414;SDS011;5763;42.714;23.244;2023-12-20T13:13:28;46.45;;;27.25;;
11414;SDS011;5763;42.714;23.244;2023-12-20T13:15:55;47.42;;;26.58;;
11414;SDS011;5763;42.714;23.244;2023-12-20T13:18:22;46.72;;;28.00;;
11414;SDS011;5763;42.714;23.244;2023-12-20T13:20:50;44.88;;;26.70;;
11414;SDS011;5763;42.714;23.244;2023-12-20T13:23:17;48.13;;;26.17;;
11414;SDS011;5763;42.714;23.244;2023-12-20T13:25:44;43.35;;;24.13;;
11414;SDS011;5763;42.714;23.244;2023-12-20T13:28:12;47.15;;;25.33;;
11414;SDS011;5763;42.714;23.244;2023-12-20T13:30:40;50.17;;;26.85;;
11414;SDS011;5763;42.714;23.244;2023-12-20T13:33:08;53.35;;;26.13;;
11414;SDS011;5763;42.714;23.244;2023-12-20T13:35:34;53.75;;;26.27;;
11414;SDS011;5763;42.714;23.244;2023-12-20T13:38:01;53.38;;;25.95;;
11414;SDS011;5763;42.714;23.244;2023-12-20T13:40:28;45.97;;;24.42;;
11414;SDS011;5763;42.714;23.244;2023-12-20T13:42:55;45.47;;;24.02;;
11414;SDS011;5763;42.714;23.244;2023-12-20T13:45:23;45.10;;;23.98;;
11414;SDS011;5763;42.714;23.244;2023-12-20T13:47:52;53.28;;;23.90;;
11414;SDS011;5763;42.714;23.244;2023-12-20T13:50:19;36.92;;;23.02;;
11414;SDS011;5763;42.714;23.244;2023-12-20T13:52:47;36.97;;;21.38;;
11414;SDS011;5763;42.714;23.244;2023-12-20T13:55:14;46.95;;;25.05;;
11414;SDS011;5763;42.714;23.244;2023-12-20T13:57:41;50.88;;;25.05;;
11414;SDS011;5763;42.714;23.244;2023-12-20T14:00:09;43.03;;;22.30;;
11414;SDS011;5763;42.714;23.244;2023-12-20T14:02:40;49.45;;;25.00;;
11414;SDS011;5763;42.714;23.244;2023-12-20T14:05:09;48.60;;;24.42;;
11414;SDS011;5763;42.714;23.244;2023-12-20T14:07:36;47.45;;;24.02;;
11414;SDS011;5763;42.714;23.244;2023-12-20T14:10:04;44.67;;;23.15;;
11414;SDS011;5763;42.714;23.244;2023-12-20T14:12:35;44.80;;;21.90;;
11414;SDS011;5763;42.714;23.244;2023-12-20T14:15:03;45.05;;;21.80;;
11414;SDS011;5763;42.714;23.244;2023-12-20T14:17:34;53.00;;;23.95;;
11414;SDS011;5763;42.714;23.244;2023-12-20T14:20:01;42.25;;;23.50;;
11414;SDS011;5763;42.714;23.244;2023-12-20T14:22:31;45.63;;;21.75;;
11414;SDS011;5763;42.714;23.244;2023-12-20T14:24:58;38.92;;;23.08;;
11414;SDS011;5763;42.714;23.244;2023-12-20T14:27:26;46.08;;;22.23;;
11414;SDS011;5763;42.714;23.244;2023-12-20T14:29:54;41.80;;;21.73;;
11414;SDS011;5763;42.714;23.244;2023-12-20T14:32:21;45.63;;;18.40;;
11414;SDS011;5763;42.714;23.244;2023-12-20T14:34:49;37.60;;;18.27;;
11414;SDS011;5763;42.714;23.244;2023-12-20T14:37:17;39.97;;;19.05;;
11414;SDS011;5763;42.714;23.244;2023-12-20T14:39:45;38.85;;;21.60;;
11414;SDS011;5763;42.714;23.244;2023-12-20T14:42:12;47.10;;;20.27;;
11414;SDS011;5763;42.714;23.244;2023-12-20T14:44:40;42.35;;;21.23;;